Emerson, New Jersey
Current Conditions -  °F | °C
As of 1:51 PM on Tuesday 27 Jan 2015 (Local Time) from KTEB Reporting Station
Broken Clouds Broken Clouds  
Wind Chill: 16°   Ceiling: 11000
Heat Index: 27°   Visibility: 10mi
Dew Point: 14°   Wind: 14mph
Humidity: 58%   Direction: 340°NNW
Pressure: 29.66"   Gusts: 24mph
Location:  40.98°N, 74.02°W
Report Text: KTEB 271851Z 34012G21KT 10SM BKN110 M03/M10 A2966 RMK AO2 SLP043 T10281100
Loading
Personal Weather Stations






























Interactive Weather Map New forecast layout! Learn more

10-Day Weather Forecast

Advertisements
Track Severe Weather on mobile